createdAt,value
2022-12-19T00:01:21.566Z,29.98
2022-12-19T00:04:23.831Z,27.92
2022-12-19T00:07:27.113Z,29.08
2022-12-19T00:10:29.167Z,28.13
2022-12-19T00:13:35.284Z,30.65
2022-12-19T00:16:46.319Z,28.55
2022-12-19T00:19:51.549Z,29.77
2022-12-19T00:22:54.882Z,30.52
2022-12-19T00:26:08.710Z,30.40
2022-12-19T00:29:14.234Z,29.38
2022-12-19T00:32:16.612Z,28.30
2022-12-19T00:35:18.936Z,29.55
2022-12-19T00:38:22.227Z,29.67
2022-12-19T00:41:28.685Z,28.83
2022-12-19T00:44:30.693Z,28.08
2022-12-19T00:47:35.013Z,28.50
2022-12-19T00:50:36.996Z,29.60
2022-12-19T00:53:40.361Z,29.90
2022-12-19T00:56:42.398Z,30.02
2022-12-19T00:59:46.795Z,29.75
2022-12-19T01:02:48.978Z,30.40
2022-12-19T01:05:51.587Z,29.20
2022-12-19T01:08:54.978Z,30.23
2022-12-19T01:11:56.942Z,30.70
2022-12-19T01:15:03.804Z,30.92
2022-12-19T01:18:09.120Z,31.25
2022-12-19T01:21:11.303Z,29.17
2022-12-19T01:24:18.961Z,32.13
2022-12-19T01:27:21.182Z,31.00
2022-12-19T01:30:23.126Z,31.25
2022-12-19T01:33:26.517Z,31.50
2022-12-19T01:36:29.098Z,30.52
2022-12-19T01:39:32.535Z,30.35
2022-12-19T01:42:37.381Z,30.30
2022-12-19T01:45:45.472Z,29.25
2022-12-19T01:48:48.285Z,29.90
2022-12-19T01:51:56.745Z,30.30
2022-12-19T01:55:01.210Z,29.33
2022-12-19T01:58:03.637Z,30.70
2022-12-19T02:01:05.989Z,29.92
2022-12-19T02:04:09.254Z,28.50
2022-12-19T02:07:16.188Z,29.42
2022-12-19T02:10:21.263Z,22.00
2022-12-19T02:13:24.597Z,30.02
2022-12-19T02:16:38.778Z,29.88
2022-12-19T02:20:05.580Z,28.27
2022-12-19T02:23:30.685Z,30.48
2022-12-19T02:27:00.306Z,28.50
2022-12-19T02:30:08.596Z,27.63
2022-12-19T02:33:17.305Z,27.85
2022-12-19T02:36:24.859Z,27.40
2022-12-19T02:39:34.117Z,27.77
2022-12-19T02:42:39.289Z,26.92
2022-12-19T02:45:42.346Z,27.52
2022-12-19T02:48:49.149Z,27.48
2022-12-19T02:51:51.384Z,26.80
2022-12-19T02:54:56.404Z,27.30
2022-12-19T02:58:31.623Z,27.70
2022-12-19T03:01:42.979Z,26.52
2022-12-19T03:04:53.772Z,26.08
2022-12-19T03:08:02.163Z,27.83
2022-12-19T03:11:07.775Z,27.88
2022-12-19T03:14:17.579Z,27.25
2022-12-19T03:17:19.811Z,27.58
2022-12-19T03:20:28.997Z,26.90
2022-12-19T03:23:33.821Z,27.85
2022-12-19T03:26:41.228Z,29.50
2022-12-19T03:29:47.345Z,27.90
2022-12-19T03:32:49.978Z,28.33
2022-12-19T03:35:56.587Z,28.05
2022-12-19T03:39:01.606Z,28.23
2022-12-19T03:42:06.963Z,27.10
2022-12-19T03:45:11.772Z,25.83
2022-12-19T03:48:25.697Z,27.10
2022-12-19T03:51:35.616Z,28.00
2022-12-19T03:54:41.802Z,26.85
2022-12-19T03:57:51.436Z,27.75
2022-12-19T04:00:54.771Z,27.70
2022-12-19T04:03:58.273Z,28.25
2022-12-19T04:07:05.395Z,27.40
2022-12-19T04:10:12.071Z,27.27
2022-12-19T04:13:18.917Z,26.38
2022-12-19T04:16:29.912Z,27.70
2022-12-19T04:19:42.431Z,27.65
2022-12-19T04:22:53.178Z,28.45
2022-12-19T04:26:04.365Z,28.08
2022-12-19T04:29:10.364Z,29.13
2022-12-19T04:32:13.048Z,27.85
2022-12-19T04:35:14.939Z,27.20
2022-12-19T04:38:19.639Z,26.95
2022-12-19T04:41:24.318Z,28.15
2022-12-19T04:44:26.331Z,26.90
2022-12-19T04:47:28.322Z,26.52
2022-12-19T04:50:32.656Z,26.98
2022-12-19T04:53:36.612Z,25.60
2022-12-19T04:56:40.434Z,26.45
2022-12-19T04:59:42.428Z,26.27
2022-12-19T05:02:44.592Z,26.67
2022-12-19T05:05:46.707Z,26.50
2022-12-19T05:08:50.085Z,27.13
2022-12-19T05:11:52.030Z,27.88
2022-12-19T05:14:53.925Z,26.27
2022-12-19T05:17:55.823Z,26.65
2022-12-19T05:20:57.709Z,26.48
2022-12-19T05:24:01.111Z,28.33
2022-12-19T05:27:02.966Z,28.92
2022-12-19T05:30:06.655Z,25.45
2022-12-19T05:33:08.663Z,25.88
2022-12-19T05:36:13.932Z,26.15
2022-12-19T05:39:17.379Z,24.48
2022-12-19T05:42:19.386Z,25.48
2022-12-19T05:45:21.556Z,27.77
2022-12-19T05:48:23.461Z,28.15
2022-12-19T05:51:25.542Z,26.33
2022-12-19T05:54:28.772Z,27.65
2022-12-19T05:57:31.249Z,26.35
2022-12-19T06:00:33.198Z,26.48
2022-12-19T06:03:35.773Z,23.73
2022-12-19T06:06:37.771Z,30.00
2022-12-19T06:09:44.036Z,30.30
2022-12-19T06:12:46.017Z,27.45
2022-12-19T06:15:47.972Z,26.73
2022-12-19T06:18:51.555Z,25.33
2022-12-19T06:21:53.583Z,23.75
2022-12-19T06:24:57.965Z,23.15
2022-12-19T06:27:59.851Z,28.17
2022-12-19T06:31:07.929Z,26.77
2022-12-19T06:34:10.441Z,23.67
2022-12-19T06:37:12.581Z,23.17
2022-12-19T06:40:16.127Z,23.98
2022-12-19T06:43:18.017Z,24.48
2022-12-19T06:46:20.002Z,24.95
2022-12-19T06:49:21.995Z,26.40
2022-12-19T06:52:23.859Z,26.63
2022-12-19T06:55:27.152Z,27.05
2022-12-19T06:58:29.130Z,25.08
2022-12-19T07:01:43.762Z,25.42
2022-12-19T07:04:48.592Z,26.02
2022-12-19T07:07:50.666Z,27.40
2022-12-19T07:10:53.968Z,27.58
2022-12-19T07:13:55.856Z,26.25
2022-12-19T07:17:00.428Z,25.83
2022-12-19T07:20:03.402Z,24.95
2022-12-19T07:23:06.703Z,25.25
2022-12-19T07:26:09.975Z,27.20
2022-12-19T07:29:12.435Z,26.67
2022-12-19T07:32:14.547Z,24.52
2022-12-19T07:35:16.648Z,25.83
2022-12-19T07:38:18.577Z,26.35
2022-12-19T07:41:21.923Z,25.15
2022-12-19T07:44:23.890Z,26.52
2022-12-19T07:47:25.765Z,27.48
2022-12-19T07:50:27.838Z,26.90
2022-12-19T07:53:32.536Z,25.88
2022-12-19T07:56:35.792Z,28.15
2022-12-19T07:59:39.431Z,28.45
2022-12-19T08:02:41.668Z,28.13
2022-12-19T08:05:43.744Z,27.55
2022-12-19T08:08:45.951Z,28.15
2022-12-19T08:11:49.217Z,27.92
2022-12-19T08:14:56.834Z,28.92
2022-12-19T08:17:59.305Z,28.90
2022-12-19T08:21:01.371Z,30.38
2022-12-19T08:24:06.099Z,31.08
2022-12-19T08:27:09.503Z,30.30
2022-12-19T08:30:15.261Z,28.42
2022-12-19T08:33:17.115Z,28.90
2022-12-19T08:36:19.005Z,29.23
2022-12-19T08:39:20.917Z,27.88
2022-12-19T08:42:24.186Z,29.88
2022-12-19T08:45:26.115Z,29.63
2022-12-19T08:48:28.100Z,29.83
2022-12-19T08:51:30.369Z,33.53
2022-12-19T08:54:33.153Z,31.83
2022-12-19T08:57:36.490Z,31.35
2022-12-19T09:00:41.358Z,31.13
2022-12-19T09:05:08.521Z,30.33
2022-12-19T09:07:05.044Z,29.80
2022-12-19T09:10:08.578Z,30.17
2022-12-19T09:13:11.868Z,31.15
2022-12-19T09:16:15.579Z,30.58
2022-12-19T09:19:17.804Z,29.45
2022-12-19T09:22:19.655Z,29.92
2022-12-19T09:25:21.546Z,30.73
2022-12-19T09:28:27.717Z,29.88
2022-12-19T09:31:30.295Z,29.05
2022-12-19T09:34:38.033Z,30.38
2022-12-19T09:37:40.768Z,31.10
2022-12-19T09:40:57.961Z,29.23
2022-12-19T09:44:11.235Z,31.25
2022-12-19T09:47:17.272Z,32.67
2022-12-19T09:50:29.150Z,32.53
2022-12-19T09:53:38.015Z,31.85
2022-12-19T09:56:45.514Z,30.65
2022-12-19T09:59:54.305Z,31.95
2022-12-19T10:03:00.262Z,30.58
2022-12-19T10:07:15.965Z,30.83
2022-12-19T10:12:16.931Z,31.42
2022-12-19T10:13:17.632Z,31.40
2022-12-19T10:16:30.716Z,32.60
2022-12-19T10:19:44.433Z,33.15
2022-12-19T10:23:01.650Z,31.23
2022-12-19T10:26:09.990Z,33.25
2022-12-19T10:29:38.130Z,31.08
2022-12-19T10:32:55.784Z,28.25
2022-12-19T10:36:02.271Z,30.52
2022-12-19T10:39:13.294Z,30.25
2022-12-19T10:42:23.963Z,28.83
2022-12-19T10:45:33.235Z,29.52
2022-12-19T10:51:38.089Z,29.25
2022-12-19T10:54:41.628Z,31.33
2022-12-19T10:57:43.569Z,30.50
2022-12-19T11:01:13.516Z,29.33
2022-12-19T11:04:31.339Z,28.77
2022-12-19T11:07:33.985Z,28.83
2022-12-19T11:13:09.933Z,29.98
2022-12-19T11:18:57.240Z,27.83
2022-12-19T11:27:30.667Z,29.58
2022-12-19T11:29:30.741Z,30.38
2022-12-19T11:30:07.048Z,30.10
2022-12-19T11:30:39.549Z,28.80
2022-12-19T11:35:01.758Z,28.85
2022-12-19T11:38:06.785Z,31.08
2022-12-19T11:41:19.357Z,28.75
2022-12-19T11:44:28.070Z,29.63
2022-12-19T11:47:35.920Z,28.35
2022-12-19T11:50:43.509Z,27.65
2022-12-19T11:53:56.451Z,27.90
2022-12-19T11:56:59.327Z,29.13
2022-12-19T12:00:05.003Z,28.73
2022-12-19T12:03:41.068Z,29.45
2022-12-19T12:06:54.056Z,28.73
2022-12-19T12:16:32.090Z,30.55
2022-12-19T12:22:26.387Z,30.67
2022-12-19T12:31:01.919Z,28.83
2022-12-19T12:31:15.526Z,30.43
2022-12-19T12:31:26.999Z,29.45
2022-12-19T12:31:43.765Z,29.80
2022-12-19T12:37:15.790Z,29.33
2022-12-19T12:38:47.970Z,30.95
2022-12-19T12:42:02.873Z,28.48
2022-12-19T12:45:18.769Z,29.15
2022-12-19T12:48:26.496Z,29.13
2022-12-19T12:51:33.555Z,29.83
2022-12-19T12:54:37.959Z,30.23
2022-12-19T12:57:40.281Z,29.52
2022-12-19T13:01:12.382Z,27.65
2022-12-19T13:04:21.801Z,25.63
2022-12-19T13:07:41.863Z,26.30
2022-12-19T13:10:55.339Z,26.48
2022-12-19T13:13:57.261Z,29.05
2022-12-19T13:17:05.545Z,25.55
2022-12-19T13:20:40.426Z,28.13
2022-12-19T13:23:48.434Z,31.70
2022-12-19T13:26:51.514Z,24.52
2022-12-19T13:30:01.892Z,24.08
2022-12-19T13:33:09.618Z,25.38
2022-12-19T13:40:00.881Z,23.73
2022-12-19T13:40:32.572Z,26.05
2022-12-19T13:43:38.981Z,24.52
2022-12-19T13:46:42.849Z,26.50
2022-12-19T13:49:46.347Z,24.45
2022-12-19T13:52:49.089Z,24.73
2022-12-19T13:55:54.096Z,24.15
2022-12-19T13:58:59.546Z,21.77
2022-12-19T14:02:08.258Z,20.80
2022-12-19T14:05:31.945Z,22.40
2022-12-19T14:08:45.896Z,21.85
2022-12-19T14:13:39.659Z,20.52
2022-12-19T14:15:28.137Z,20.95
2022-12-19T14:18:44.391Z,18.83
2022-12-19T14:22:06.637Z,22.33
2022-12-19T14:27:51.901Z,41.53
2022-12-19T14:28:38.672Z,29.02
2022-12-19T14:31:58.405Z,24.10
2022-12-19T14:36:07.760Z,19.55
2022-12-19T14:39:22.941Z,20.55
2022-12-19T14:42:03.139Z,18.42
2022-12-19T14:52:51.018Z,17.33
2022-12-19T14:54:21.708Z,17.73
2022-12-19T14:59:41.269Z,14.52
2022-12-19T15:02:45.766Z,16.23
2022-12-19T15:05:48.153Z,17.85
2022-12-19T15:09:17.501Z,18.92
2022-12-19T15:14:51.165Z,17.38
2022-12-19T15:15:40.809Z,16.42
2022-12-19T15:18:42.940Z,17.55
2022-12-19T15:21:47.542Z,18.02
2022-12-19T15:24:49.522Z,18.05
2022-12-19T15:27:52.872Z,19.77
2022-12-19T15:31:00.507Z,19.10
2022-12-19T15:40:36.856Z,20.83
2022-12-19T15:44:03.174Z,20.73
2022-12-19T15:47:03.953Z,21.88
2022-12-19T15:50:19.204Z,22.88
2022-12-19T15:53:38.078Z,22.90
2022-12-19T15:56:45.206Z,23.30
2022-12-19T15:59:48.904Z,21.38
2022-12-19T16:03:23.140Z,23.88
2022-12-19T16:06:16.037Z,23.65
2022-12-19T16:09:20.422Z,22.98
2022-12-19T16:12:26.528Z,24.17
2022-12-19T16:15:34.392Z,23.33
2022-12-19T16:18:36.308Z,23.58
2022-12-19T16:21:38.174Z,23.10
2022-12-19T16:24:40.069Z,23.17
2022-12-19T16:27:43.136Z,23.80
2022-12-19T16:30:46.577Z,23.73
2022-12-19T16:33:48.476Z,24.85
2022-12-19T16:36:50.745Z,23.90
2022-12-19T16:39:52.616Z,23.65
2022-12-19T16:43:04.350Z,24.30
2022-12-19T16:46:12.533Z,24.08
2022-12-19T16:49:16.243Z,25.27
2022-12-19T16:52:18.160Z,26.48
2022-12-19T16:55:20.616Z,24.05
2022-12-19T16:58:24.274Z,26.33
2022-12-19T17:01:30.142Z,25.35
2022-12-19T17:04:32.071Z,26.33
2022-12-19T17:07:34.153Z,27.10
2022-12-19T17:10:36.268Z,27.48
2022-12-19T17:13:38.538Z,27.08
2022-12-19T17:16:42.379Z,27.63
2022-12-19T17:19:45.851Z,27.17
2022-12-19T17:22:48.628Z,25.50
2022-12-19T17:25:53.567Z,26.92
2022-12-19T17:28:55.473Z,26.60
2022-12-19T17:31:59.047Z,26.83
2022-12-19T17:35:00.976Z,26.38
2022-12-19T17:38:03.549Z,26.58
2022-12-19T17:41:05.800Z,25.85
2022-12-19T17:44:07.652Z,27.50
2022-12-19T17:47:14.302Z,28.17
2022-12-19T17:50:22.746Z,28.95
2022-12-19T17:53:25.050Z,26.67
2022-12-19T17:56:26.959Z,28.17
2022-12-19T17:59:28.724Z,27.17
2022-12-19T18:02:54.618Z,26.67
2022-12-19T18:06:19.945Z,27.55
2022-12-19T18:09:25.056Z,29.23
2022-12-19T18:12:29.279Z,25.77
2022-12-19T18:15:31.311Z,27.63
2022-12-19T18:18:36.043Z,28.13
2022-12-19T18:21:41.019Z,26.88
2022-12-19T18:24:43.025Z,26.08
2022-12-19T18:27:45.502Z,27.45
2022-12-19T18:30:48.987Z,27.33
2022-12-19T18:33:54.469Z,27.60
2022-12-19T18:36:56.577Z,27.08
2022-12-19T18:39:58.430Z,26.73
2022-12-19T18:43:00.843Z,27.10
2022-12-19T18:46:02.944Z,26.33
2022-12-19T18:49:12.604Z,27.85
2022-12-19T18:52:16.191Z,28.17
2022-12-19T18:55:23.679Z,28.40
2022-12-19T18:58:25.749Z,28.35
2022-12-19T19:01:28.200Z,29.25
2022-12-19T19:04:32.406Z,29.08
2022-12-19T19:07:34.386Z,29.00
2022-12-19T19:10:36.212Z,31.02
2022-12-19T19:13:38.931Z,29.92
2022-12-19T19:16:42.837Z,28.88
2022-12-19T19:19:47.431Z,29.50
2022-12-19T19:22:49.501Z,29.27
2022-12-19T19:25:54.285Z,30.45
2022-12-19T19:28:56.199Z,31.63
2022-12-19T19:31:58.517Z,30.77
2022-12-19T19:35:05.138Z,29.15
2022-12-19T19:38:09.065Z,29.55
2022-12-19T19:41:11.267Z,29.38
2022-12-19T19:44:13.620Z,30.75
2022-12-19T19:47:18.102Z,30.30
2022-12-19T19:50:23.068Z,31.48
2022-12-19T19:53:25.423Z,29.52
2022-12-19T19:56:27.780Z,29.55
2022-12-19T19:59:30.744Z,30.02
2022-12-19T20:02:33.647Z,29.50
2022-12-19T20:05:37.661Z,30.70
2022-12-19T20:08:40.817Z,29.58
2022-12-19T20:11:43.456Z,29.10
2022-12-19T20:14:45.471Z,29.13
2022-12-19T20:17:47.367Z,30.58
2022-12-19T20:20:50.667Z,29.00
2022-12-19T20:23:52.908Z,30.98
2022-12-19T20:26:55.022Z,30.70
2022-12-19T20:29:57.327Z,30.80
2022-12-19T20:33:01.526Z,29.30
2022-12-19T20:36:08.999Z,32.70
2022-12-19T20:39:11.080Z,29.17
2022-12-19T20:42:13.087Z,30.20
2022-12-19T20:45:15.048Z,31.02
2022-12-19T20:48:16.958Z,31.55
2022-12-19T20:51:21.859Z,29.98
2022-12-19T20:54:23.811Z,31.50
2022-12-19T20:57:27.389Z,31.05
2022-12-19T21:00:29.303Z,30.80
2022-12-19T21:03:33.681Z,31.08
2022-12-19T21:06:37.154Z,30.10
2022-12-19T21:09:39.108Z,31.88
2022-12-19T21:12:47.158Z,32.83
2022-12-19T21:15:52.024Z,31.30
2022-12-19T21:18:54.112Z,31.73
2022-12-19T21:21:57.408Z,31.13
2022-12-19T21:24:59.232Z,32.15
2022-12-19T21:28:01.134Z,30.20
2022-12-19T21:31:05.859Z,30.60
2022-12-19T21:34:07.813Z,29.40
2022-12-19T21:37:11.135Z,30.92
2022-12-19T21:40:13.731Z,32.15
2022-12-19T21:43:15.632Z,29.52
2022-12-19T21:46:17.848Z,30.33
2022-12-19T21:49:22.114Z,30.85
2022-12-19T21:52:25.314Z,31.95
2022-12-19T21:55:27.195Z,31.17
2022-12-19T21:58:29.060Z,30.50
2022-12-19T22:01:31.546Z,32.38
2022-12-19T22:04:33.529Z,32.15
2022-12-19T22:07:36.714Z,30.85
2022-12-19T22:10:38.709Z,32.42
2022-12-19T22:13:40.812Z,30.50
2022-12-19T22:16:44.365Z,30.90
2022-12-19T22:19:46.262Z,29.75
2022-12-19T22:22:49.443Z,30.20
2022-12-19T22:26:00.135Z,30.45
2022-12-19T22:29:06.040Z,30.85
2022-12-19T22:32:07.957Z,31.25
2022-12-19T22:35:10.164Z,33.00
2022-12-19T22:38:13.346Z,29.70
2022-12-19T22:41:16.221Z,30.85
2022-12-19T22:44:19.968Z,31.50
2022-12-19T22:47:21.848Z,31.40
2022-12-19T22:50:23.644Z,31.42
2022-12-19T22:53:26.915Z,31.55
2022-12-19T22:56:30.660Z,32.80
2022-12-19T22:59:32.593Z,33.33
2022-12-19T23:02:34.523Z,34.90
2022-12-19T23:05:36.605Z,32.92
2022-12-19T23:08:40.183Z,37.00
2022-12-19T23:11:47.586Z,34.05
2022-12-19T23:14:49.410Z,34.30
2022-12-19T23:17:51.222Z,37.63
2022-12-19T23:21:02.448Z,36.67
2022-12-19T23:24:09.043Z,37.88
2022-12-19T23:27:10.930Z,39.38
2022-12-19T23:30:12.933Z,40.08
2022-12-19T23:33:14.826Z,38.95
2022-12-19T23:36:23.314Z,42.55
2022-12-19T23:39:40.349Z,41.72
2022-12-19T23:42:42.153Z,38.85
2022-12-19T23:45:44.030Z,41.25
2022-12-19T23:48:46.097Z,40.00
2022-12-19T23:51:48.948Z,40.10
2022-12-19T23:54:52.137Z,41.95
2022-12-19T23:57:53.994Z,41.58
